• Join FlightAware (Why Join?)
  • Login
  • US Flag 
01:56PM EST


 

Airport Tracker/Info


-or-


 

Live Flight TrackerFlight Track Log ✈ FLG4262 ✈ 14-Nov-2013 ✈ KBGM - KDTW

Flight Track Log - Related Links

Times and Time Zones

All times are in EST time to prevent confusion due to time zone crossing. See the FLG4262 flight status page for this flight to view local times or setup timezone preferences in your user account.

Time Position Orientation Groundspeed Altitude Reporting Facility
EST Latitude Longitude Course Direction KTS MPH feet Rate Location/Type
05:33PM 42.1394 -75.9978 222° Southwest 205 236 5,600  Level New York Center
05:34PM 42.1628 -76.0781 291° West 162 186 7,600 2,340 Climbing New York Center
05:35PM 42.1883 -76.1611 293° West 196 226 10,300 2,520 Climbing New York Center
05:37PM 42.2403 -76.3175 294° West 270 311 14,900 2,400 Climbing Cleveland Center
05:38PM 42.2290 -76.6765 289° West  Level Estimated
05:38PM 42.2733 -76.4217 293° West 273 314 17,400  Level Cleveland Center
05:39PM 42.3028 -76.5189 292° West 279 321 18,900 1,080 Climbing Cleveland Center
05:40PM 42.3356 -76.6286 292° West 311 358 19,700 1,020 Climbing Cleveland Center
05:41PM 42.3808 -76.7714 293° West 343 395 21,100 1,260 Climbing Cleveland Center
05:43PM 42.4164 -76.8925 292° West 347 399 22,400 1,080 Climbing Cleveland Center
05:44PM 42.4536 -77.0147 292° West 350 403 23,400 900 Climbing Cleveland Center
05:45PM 42.4911 -77.1397 292° West 358 412 24,300 840 Climbing Cleveland Center
05:46PM 42.5292 -77.2661 292° West 362 417 25,200 780 Climbing Cleveland Center
05:47PM 42.5678 -77.3964 292° West 370 426 26,000 780 Climbing Cleveland Center
05:48PM 42.6119 -77.5442 292° West 379 436 26,900 720 Climbing Cleveland Center
05:49PM 42.6242 -77.6803 277° West 375 432 27,600 480 Climbing Cleveland Center
05:50PM 42.6319 -77.8481 274° West 376 433 28,000 180 Climbing Cleveland Center
05:51PM 42.6375 -77.9911 273° West 380 437 28,000  Level Cleveland Center
05:52PM 42.6425 -78.1342 273° West 380 437 28,000  Level Cleveland Center
05:53PM 42.6469 -78.2794 272° West 385 443 28,000  Level Cleveland Center
05:54PM 42.6528 -78.4264 273° West 388 447 28,000  Level Cleveland Center
05:55PM 42.6572 -78.5736 272° West 394 453 28,000  Level Cleveland Center
05:56PM 42.6631 -78.7489 273° West 389 448 28,000  Level Cleveland Center
05:57PM 42.6681 -78.8972 273° West 393 452 28,000  Level Cleveland Center
05:58PM 42.6711 -79.0458 272° West 396 456 28,000  Level Cleveland Center
05:59PM 42.6747 -79.1931 272° West 393 452 28,000  Level Cleveland Center
06:00PM 42.6786 -79.3419 272° West 394 453 28,000  Level Cleveland Center
06:01PM 42.6828 -79.4900 272° West 395 455 28,000  Level Cleveland Center
06:02PM 42.6864 -79.6700 272° West 397 457 28,000  Level Cleveland Center
06:03PM 42.6892 -79.8181 272° West 395 455 28,000  Level Cleveland Center
06:04PM 42.6925 -79.9694 272° West 400 460 28,000  Level Cleveland Center
06:05PM 42.6936 -80.1217 271° West 402 463 28,000  Level Cleveland Center
06:06PM 42.6975 -80.2764 272° West 404 465 28,000  Level Cleveland Center
06:07PM 42.7000 -80.4303 271° West 404 465 28,000  Level Cleveland Center
06:08PM 42.7022 -80.6131 271° West 410 472 28,000 -300 Level Cleveland Center
06:09PM 42.7053 -80.7681 272° West 410 472 27,500 -1,020 Descending Cleveland Center
06:10PM 42.7042 -80.9200 269° West 404 465 26,000 -1,500 Descending Cleveland Center
06:11PM 42.6869 -81.0608 261° West 379 436 24,500 -1,020 Descending Cleveland Center
06:13PM 42.6711 -81.1981 261° West 368 423 24,000 -300 Descending Cleveland Center
06:14PM 42.6550 -81.3350 261° West 365 420 24,000  Level Cleveland Center
06:15PM 42.6361 -81.4925 261° West 364 419 24,000 -540 Level Cleveland Center
06:16PM 42.6203 -81.6306 261° West 366 421 22,900 -1,500 Descending Cleveland Center
06:17PM 42.6047 -81.7583 261° West 348 400 20,900 -1,920 Descending Cleveland Center
06:18PM 42.5892 -81.8875 261° West 337 388 19,000 -1,800 Descending Cleveland Center
06:19PM 42.5736 -82.0106 260° West 333 383 17,200 -1,800 Descending Cleveland Center
06:20PM 42.5583 -82.1361 261° West 338 389 15,300 -1,980 Descending Cleveland Center
06:20PM 42.5550 -82.1647 261° West 339 390 14,900 -1,860 Descending Cleveland Center
06:21PM 42.5419 -82.2664 260° West 346 398 13,400 -1,860 Descending Cleveland Center
06:21PM 42.5361 -82.3208 262° West 352 405 12,800 -1,260 Descending Cleveland Center
06:22PM 42.5269 -82.3967 261° West 351 404 12,100 -840 Descending Cleveland Center
06:22PM 42.5211 -82.4464 261° West 338 389 12,000 -120 Descending Cleveland Center
06:23PM 42.5097 -82.5250 259° West 283 326 12,000  Level Cleveland Center
06:23PM 42.5056 -82.5492 257° West 244 281 12,000 -660 Level Cleveland Center
06:24PM 42.4686 -82.6292 238° Southwest 258 297 11,200 -1,080 Descending Cleveland Center
06:25PM 42.4322 -82.6819 227° Southwest 255 293 10,100 -1,560 Descending Cleveland Center
06:25PM 42.4189 -82.7075 235° Southwest 248 285 9,500 -1,680 Descending Cleveland Center
06:26PM 42.4047 -82.7617 251° West 245 282 8,400 -1,860 Descending Cleveland Center
06:26PM 42.4028 -82.7872 264° West 236 272 7,800 -1,920 Descending Cleveland Center
06:27PM 42.3975 -82.8492 263° West 236 272 6,400 -1,620 Descending Cleveland Center
06:27PM 42.3933 -82.8850 261° West 231 266 6,000 -420 Descending Cleveland Center
06:28PM 42.3878 -82.9317 261° West 229 264 6,000  Level Cleveland Center
06:28PM 42.3853 -82.9686 265° West 216 249 6,000  Level Cleveland Center
06:29PM 42.3861 -83.0203 271° West 199 229 6,000  Level Cleveland Center
06:29PM 42.3889 -83.0311 289° West 170 196 6,000 -720 Level Cleveland Center
06:30PM 42.4008 -83.0811 288° West 176 203 5,300 -900 Descending Cleveland Center
06:30PM 42.4067 -83.1014 291° West 185 213 5,000 -300 Descending Cleveland Center
06:31PM 42.4100 -83.1478 276° West 185 213 5,000  Level Cleveland Center
06:31PM 42.3972 -83.1708 233° Southwest 164 189 5,000 -240 Level Cleveland Center
06:32PM 42.3819 -83.1939 228° Southwest 160 184 4,800 -480 Descending Cleveland Center
06:32PM 42.3778 -83.2050 243° Southwest 131 151 4,600 -1,080 Descending Cleveland Center
06:33PM 42.3483 -83.2347 217° Southwest 141 162 3,600 -840 Descending Cleveland Center
06:34PM 42.3169 -83.2614 212° Southwest 132 152 3,000 -660 Descending Cleveland Center
06:35PM 42.2872 -83.2836 209° Southwest 133 153 2,300 -720 Descending Cleveland Center
06:35PM 42.2858 -83.2853 222° Southwest 117 135 2,300 -600 Level Cleveland Center
06:36PM 42.2614 -83.3014 206° Southwest 119 137 1,700 -600 Descending Cleveland Center
06:36PM 42.2592 -83.3042 223° Southwest 107 123 1,700 -600 Level Cleveland Center
06:37PM 42.2350 -83.3203 206° Southwest 110 127 1,100 -720 Descending Cleveland Center
06:37PM 42.2322 -83.3258 236° Southwest 116 133 1,000 -120 Descending Cleveland Center
06:38PM 42.2075 -83.3414 205° Southwest 111 128 1,000  Level Cleveland Center
06:40PM 42.2000 -83.3500 213° Southwest  Level FlightAware Approximate
06:47PM 42.2124 -83.3534 213° Southwest  Level Estimated